createdAt,value
2024-04-23T00:02:18.310Z,3.32
2024-04-23T00:04:45.222Z,3.25
2024-04-23T00:07:12.059Z,3.36
2024-04-23T00:09:41.518Z,3.08
2024-04-23T00:12:08.325Z,3.06
2024-04-23T00:14:35.109Z,3.01
2024-04-23T00:17:03.007Z,2.73
2024-04-23T00:19:29.942Z,2.80
2024-04-23T00:21:56.758Z,2.92
2024-04-23T00:24:23.642Z,2.75
2024-04-23T00:26:57.397Z,2.61
2024-04-23T00:29:24.248Z,2.85
2024-04-23T00:31:51.104Z,2.66
2024-04-23T00:34:17.943Z,2.74
2024-04-23T00:36:51.393Z,2.50
2024-04-23T00:39:18.218Z,2.51
2024-04-23T00:41:45.031Z,2.68
2024-04-23T00:44:14.459Z,2.58
2024-04-23T00:46:41.352Z,2.55
2024-04-23T00:49:09.423Z,2.66
2024-04-23T00:51:36.269Z,2.61
2024-04-23T00:54:03.230Z,2.44
2024-04-23T00:56:30.032Z,2.44
2024-04-23T00:58:57.252Z,2.46
2024-04-23T01:01:26.756Z,2.75
2024-04-23T01:03:53.634Z,2.83
2024-04-23T01:06:20.517Z,2.71
2024-04-23T01:08:47.475Z,2.61
2024-04-23T01:11:14.324Z,2.67
2024-04-23T01:13:41.149Z,2.74
2024-04-23T01:16:08.018Z,2.89
2024-04-23T01:18:37.502Z,2.79
2024-04-23T01:21:04.792Z,2.72
2024-04-23T01:23:32.773Z,2.92
2024-04-23T01:26:05.156Z,2.72
2024-04-23T01:28:32.035Z,2.77
2024-04-23T01:30:58.912Z,2.75
2024-04-23T01:33:25.824Z,2.61
2024-04-23T01:35:52.691Z,2.70
2024-04-23T01:38:19.548Z,3.00
2024-04-23T01:40:46.389Z,2.98
2024-04-23T01:43:15.946Z,3.00
2024-04-23T01:45:42.983Z,3.03
2024-04-23T01:48:09.866Z,3.18
2024-04-23T01:50:36.802Z,3.33
2024-04-23T01:53:03.781Z,3.42
2024-04-23T01:55:30.643Z,3.49
2024-04-23T01:57:57.508Z,3.54
2024-04-23T02:00:26.975Z,3.70
2024-04-23T02:02:53.898Z,3.45
2024-04-23T02:05:20.777Z,3.42
2024-04-23T02:07:47.611Z,3.68
2024-04-23T02:10:14.440Z,3.52
2024-04-23T02:12:41.259Z,3.34
2024-04-23T02:15:08.492Z,3.43
2024-04-23T02:17:38.186Z,3.40
2024-04-23T02:20:06.082Z,3.31
2024-04-23T02:22:32.959Z,3.72
2024-04-23T02:24:59.784Z,3.70
2024-04-23T02:27:26.577Z,3.73
2024-04-23T02:29:53.424Z,4.18
2024-04-23T02:32:20.309Z,4.41
2024-04-23T02:34:49.820Z,4.59
2024-04-23T02:37:16.807Z,4.80
2024-04-23T02:39:43.675Z,4.56
2024-04-23T02:42:10.550Z,4.87
2024-04-23T02:44:37.441Z,4.72
2024-04-23T02:47:04.358Z,4.95
2024-04-23T02:49:31.262Z,4.93
2024-04-23T02:52:00.725Z,4.98
2024-04-23T02:54:28.353Z,4.95
2024-04-23T02:56:55.134Z,4.83
2024-04-23T02:59:22.452Z,4.74
2024-04-23T03:01:49.394Z,4.77
2024-04-23T03:04:16.677Z,4.23
2024-04-23T03:06:43.566Z,4.45
2024-04-23T03:09:13.020Z,4.10
2024-04-23T03:11:39.912Z,4.14
2024-04-23T03:14:06.811Z,4.16
2024-04-23T03:16:33.770Z,4.29
2024-04-23T03:19:00.606Z,4.46
2024-04-23T03:21:27.408Z,4.70
2024-04-23T03:23:54.276Z,4.88
2024-04-23T03:26:23.718Z,4.05
2024-04-23T03:28:50.632Z,4.44
2024-04-23T03:31:17.448Z,4.36
2024-04-23T03:33:44.273Z,4.06
2024-04-23T03:36:11.963Z,3.83
2024-04-23T03:38:39.835Z,3.83
2024-04-23T03:41:06.659Z,3.80
2024-04-23T03:43:36.165Z,3.95
2024-04-23T03:46:02.982Z,3.43
2024-04-23T03:48:29.833Z,3.72
2024-04-23T03:50:56.672Z,3.40
2024-04-23T03:53:23.486Z,3.50
2024-04-23T03:55:50.309Z,3.68
2024-04-23T03:58:17.144Z,3.67
2024-04-23T04:00:46.668Z,3.44
2024-04-23T04:03:13.537Z,3.38
2024-04-23T04:05:40.359Z,3.28
2024-04-23T04:08:07.501Z,3.46
2024-04-23T04:10:34.355Z,3.41
2024-04-23T04:13:12.896Z,3.49
2024-04-23T04:15:50.656Z,3.70
2024-04-23T04:18:17.577Z,3.69
2024-04-23T04:20:44.433Z,3.61
2024-04-23T04:23:11.367Z,3.94
2024-04-23T04:25:38.258Z,3.35
2024-04-23T04:28:05.900Z,3.50
2024-04-23T04:30:32.768Z,3.31
2024-04-23T04:33:02.334Z,3.18
2024-04-23T04:35:29.355Z,3.34
2024-04-23T04:37:56.328Z,3.39
2024-04-23T04:40:23.235Z,3.40
2024-04-23T04:42:50.080Z,3.18
2024-04-23T04:45:17.199Z,3.38
2024-04-23T04:47:44.207Z,3.08
2024-04-23T04:50:13.926Z,2.94
2024-04-23T04:52:40.808Z,2.96
2024-04-23T04:55:07.754Z,3.10
2024-04-23T04:57:34.565Z,3.34
2024-04-23T05:00:01.436Z,3.03
2024-04-23T05:02:28.581Z,3.39
2024-04-23T05:04:55.432Z,3.66
2024-04-23T05:07:24.864Z,3.44
2024-04-23T05:09:51.686Z,3.48
2024-04-23T05:12:18.618Z,3.27
2024-04-23T05:14:45.519Z,3.29
2024-04-23T05:17:12.457Z,3.23
2024-04-23T05:19:39.405Z,3.18
2024-04-23T05:22:06.268Z,3.14
2024-04-23T05:24:35.673Z,3.26
2024-04-23T05:27:02.519Z,3.32
2024-04-23T05:29:29.391Z,3.33
2024-04-23T05:31:56.253Z,2.98
2024-04-23T05:34:23.103Z,3.26
2024-04-23T05:36:49.980Z,3.40
2024-04-23T05:39:16.843Z,3.27
2024-04-23T05:41:46.336Z,3.45
2024-04-23T05:44:13.206Z,3.15
2024-04-23T05:46:40.065Z,3.28
2024-04-23T05:49:44.414Z,3.58
2024-04-23T05:53:07.578Z,3.79
2024-04-23T05:55:53.074Z,3.47
2024-04-23T05:58:22.586Z,3.35
2024-04-23T06:00:49.427Z,3.50
2024-04-23T06:03:16.286Z,3.60
2024-04-23T06:05:43.278Z,3.94
2024-04-23T06:08:10.176Z,3.75
2024-04-23T06:10:37.079Z,4.24
2024-04-23T06:13:04.132Z,4.13
2024-04-23T06:15:33.590Z,3.95
2024-04-23T06:18:00.552Z,3.93
2024-04-23T06:20:27.436Z,4.04
2024-04-23T06:22:54.431Z,4.11
2024-04-23T06:25:21.492Z,4.17
2024-04-23T06:27:48.329Z,3.98
2024-04-23T06:30:15.223Z,3.78
2024-04-23T06:32:44.857Z,3.69
2024-04-23T06:35:11.823Z,3.78
2024-04-23T06:37:38.928Z,3.38
2024-04-23T06:40:07.112Z,3.61
2024-04-23T06:42:33.980Z,3.80
2024-04-23T06:45:00.801Z,3.88
2024-04-23T06:47:27.730Z,4.12
2024-04-23T06:49:57.346Z,4.03
2024-04-23T06:52:24.245Z,4.05
2024-04-23T06:54:51.119Z,3.91
2024-04-23T06:57:17.933Z,4.10
2024-04-23T06:59:44.786Z,3.62
2024-04-23T07:02:11.780Z,3.56
2024-04-23T07:04:38.737Z,3.67
2024-04-23T07:07:08.225Z,3.61
2024-04-23T07:09:35.066Z,3.34
2024-04-23T07:12:01.924Z,3.23
2024-04-23T07:14:28.749Z,3.27
2024-04-23T07:16:55.649Z,3.51
2024-04-23T07:19:22.611Z,3.43
2024-04-23T07:21:49.429Z,3.32
2024-04-23T07:24:18.890Z,3.47
2024-04-23T07:26:45.734Z,3.40
2024-04-23T07:29:12.600Z,3.38
2024-04-23T07:31:39.470Z,3.55
2024-04-23T07:34:06.381Z,3.34
2024-04-23T07:36:33.155Z,3.53
2024-04-23T07:38:59.987Z,3.83
2024-04-23T07:41:29.449Z,3.66
2024-04-23T07:43:56.353Z,3.96
2024-04-23T07:46:23.214Z,3.97
2024-04-23T07:48:50.077Z,3.84
2024-04-23T07:51:16.956Z,4.04
2024-04-23T07:53:43.747Z,4.16
2024-04-23T07:56:10.649Z,4.35
2024-04-23T07:58:40.335Z,4.57
2024-04-23T08:01:07.283Z,4.61
2024-04-23T08:03:34.162Z,4.67
2024-04-23T08:06:00.966Z,4.81
2024-04-23T08:08:27.762Z,4.71
2024-04-23T08:10:54.627Z,4.67
2024-04-23T08:13:21.440Z,4.60
2024-04-23T08:15:50.957Z,5.04
2024-04-23T08:18:17.932Z,5.14
2024-04-23T08:20:44.809Z,5.09
2024-04-23T08:23:11.653Z,5.35
2024-04-23T08:25:38.530Z,4.76
2024-04-23T08:28:05.905Z,4.52
2024-04-23T08:30:32.813Z,4.48
2024-04-23T08:33:02.385Z,4.76
2024-04-23T08:35:29.493Z,4.56
2024-04-23T08:37:56.427Z,4.99
2024-04-23T08:40:23.449Z,4.82
2024-04-23T08:42:50.647Z,4.53
2024-04-23T08:45:17.454Z,4.09
2024-04-23T08:47:44.519Z,4.28
2024-04-23T08:50:14.068Z,4.20
2024-04-23T08:52:40.971Z,4.44
2024-04-23T08:55:07.787Z,4.37
2024-04-23T08:57:34.599Z,4.46
2024-04-23T09:00:03.665Z,4.54
2024-04-23T09:02:32.316Z,5.00
2024-04-23T09:04:59.257Z,5.32
2024-04-23T09:07:32.987Z,5.47
2024-04-23T09:10:01.336Z,5.32
2024-04-23T09:12:28.264Z,5.30
2024-04-23T09:14:55.072Z,5.46
2024-04-23T09:17:22.088Z,5.76
2024-04-23T09:19:48.961Z,5.55
2024-04-23T09:22:15.754Z,5.60
2024-04-23T09:24:45.167Z,5.91
2024-04-23T09:27:12.120Z,6.12
2024-04-23T09:29:38.968Z,6.12
2024-04-23T09:32:06.005Z,6.08
2024-04-23T09:34:36.917Z,5.80
2024-04-23T09:37:16.205Z,5.84
2024-04-23T09:39:47.314Z,5.34
2024-04-23T09:42:22.409Z,5.22
2024-04-23T09:44:49.278Z,5.19
2024-04-23T09:47:16.285Z,5.35
2024-04-23T09:49:46.139Z,5.27
2024-04-23T09:52:13.394Z,5.28
2024-04-23T09:54:40.429Z,5.30
2024-04-23T09:57:09.855Z,5.74
2024-04-23T09:59:36.669Z,5.88
2024-04-23T10:02:03.805Z,5.68
2024-04-23T10:04:31.065Z,5.61
2024-04-23T10:06:58.067Z,5.93
2024-04-23T10:09:27.201Z,5.76
2024-04-23T10:11:54.736Z,6.03
2024-04-23T10:14:25.400Z,5.96
2024-04-23T10:16:55.653Z,5.97
2024-04-23T10:19:22.497Z,5.92
2024-04-23T10:21:49.301Z,5.75
2024-04-23T10:24:16.126Z,5.89
2024-04-23T10:26:43.086Z,5.96
2024-04-23T10:29:10.387Z,6.18
2024-04-23T10:31:40.222Z,6.33
2024-04-23T10:34:08.017Z,6.57
2024-04-23T10:36:36.806Z,6.64
2024-04-23T10:39:03.800Z,6.64
2024-04-23T10:41:30.628Z,6.22
2024-04-23T10:43:57.649Z,6.10
2024-04-23T10:46:24.538Z,6.04
2024-04-23T10:48:55.904Z,6.02
2024-04-23T10:51:23.180Z,6.18
2024-04-23T10:53:50.016Z,6.42
2024-04-23T10:56:22.548Z,6.31
2024-04-23T10:58:49.525Z,6.41
2024-04-23T11:01:24.072Z,6.56
2024-04-23T11:03:58.648Z,6.55
2024-04-23T11:06:36.356Z,6.81
2024-04-23T11:09:13.055Z,6.76
2024-04-23T11:11:40.001Z,6.87
2024-04-23T11:14:06.916Z,6.57
2024-04-23T11:16:33.801Z,6.37
2024-04-23T11:19:03.402Z,6.40
2024-04-23T11:21:30.377Z,6.79
2024-04-23T11:23:57.218Z,6.91
2024-04-23T11:26:24.172Z,6.50
2024-04-23T11:28:51.133Z,6.33
2024-04-23T11:31:17.998Z,5.92
2024-04-23T11:33:44.934Z,6.19
2024-04-23T11:36:24.924Z,6.11
2024-04-23T11:38:51.856Z,6.42
2024-04-23T11:41:18.948Z,6.19
2024-04-23T11:43:46.025Z,6.57
2024-04-23T11:46:14.058Z,6.75
2024-04-23T11:48:40.914Z,6.95
2024-04-23T11:51:07.822Z,7.38
2024-04-23T11:53:37.271Z,7.32
2024-04-23T11:56:04.589Z,7.29
2024-04-23T11:58:31.419Z,7.18
2024-04-23T12:00:58.282Z,7.21
2024-04-23T12:03:25.103Z,7.38
2024-04-23T12:05:52.076Z,7.29
2024-04-23T12:08:18.937Z,7.22
2024-04-23T12:40:40.856Z,7.74
2024-04-23T12:43:08.846Z,7.92
2024-04-23T12:45:35.759Z,8.23
2024-04-23T12:48:03.019Z,8.22
2024-04-23T12:50:30.744Z,8.47
2024-04-23T12:52:57.619Z,8.49
2024-04-23T12:55:24.451Z,8.51
2024-04-23T12:57:53.837Z,8.41
2024-04-23T13:00:20.695Z,8.76
2024-04-23T13:02:47.603Z,8.97
2024-04-23T13:21:53.615Z,9.88
2024-04-23T13:24:20.463Z,10.10
2024-04-23T13:26:47.301Z,10.22
2024-04-23T13:29:14.322Z,10.43
2024-04-23T13:31:41.383Z,10.49
2024-04-23T13:34:08.213Z,10.51
2024-04-23T13:36:35.016Z,10.47
2024-04-23T13:39:04.533Z,10.14
2024-04-23T13:41:31.586Z,10.17
2024-04-23T13:43:58.445Z,10.09
2024-04-23T13:46:25.301Z,10.01
2024-04-23T13:48:52.273Z,10.21
2024-04-23T13:51:19.086Z,9.40
2024-04-23T13:53:46.435Z,9.36
2024-04-23T13:56:16.116Z,9.32
2024-04-23T13:58:43.089Z,9.09
2024-04-23T14:01:10.278Z,9.26
2024-04-23T14:03:37.395Z,9.31
2024-04-23T14:06:05.011Z,9.99
2024-04-23T14:08:32.226Z,10.48
2024-04-23T14:11:00.385Z,10.20
2024-04-23T14:13:32.501Z,10.04
2024-04-23T14:15:59.332Z,9.98
2024-04-23T14:18:27.349Z,10.08
2024-04-23T14:20:54.151Z,9.77
2024-04-23T14:23:20.980Z,9.80
2024-04-23T14:25:48.012Z,9.89
2024-04-23T14:28:14.886Z,9.96
2024-04-23T14:30:44.393Z,9.60
2024-04-23T14:33:11.363Z,9.76
2024-04-23T14:35:38.385Z,10.03
2024-04-23T14:38:06.330Z,10.29
2024-04-23T14:40:33.271Z,9.75
2024-04-23T14:43:00.177Z,9.17
2024-04-23T14:45:27.004Z,9.01
2024-04-23T14:47:56.616Z,9.42
2024-04-23T14:50:23.643Z,9.70
2024-04-23T14:52:51.269Z,9.88
2024-04-23T14:55:18.150Z,10.25
2024-04-23T14:57:45.082Z,10.55
2024-04-23T15:00:12.581Z,10.64
2024-04-23T15:02:40.140Z,10.26
2024-04-23T15:05:10.024Z,10.40
2024-04-23T15:07:37.170Z,10.52
2024-04-23T15:10:04.545Z,10.36
2024-04-23T15:12:31.462Z,9.58
2024-04-23T15:14:58.416Z,9.69
2024-04-23T15:17:25.395Z,9.96
2024-04-23T15:19:52.347Z,10.30
2024-04-23T15:22:21.985Z,10.24
2024-04-23T15:24:48.991Z,9.83
2024-04-23T15:27:15.859Z,10.06
2024-04-23T15:29:42.672Z,9.52
2024-04-23T15:32:09.658Z,9.29
2024-04-23T15:34:36.680Z,8.66
2024-04-23T15:37:03.799Z,8.87
2024-04-23T15:39:33.580Z,8.49
2024-04-23T15:42:00.444Z,8.41
2024-04-23T15:44:27.238Z,8.69
2024-04-23T15:46:54.122Z,7.92
2024-04-23T15:49:21.054Z,8.05
2024-04-23T15:51:47.910Z,8.33
2024-04-23T15:54:14.875Z,8.13
2024-04-23T15:56:44.404Z,8.21
2024-04-23T15:59:11.414Z,8.45
2024-04-23T16:01:38.418Z,8.80
2024-04-23T16:04:05.443Z,8.72
2024-04-23T16:06:32.338Z,8.60
2024-04-23T16:08:59.192Z,8.79
2024-04-23T16:11:26.358Z,8.91
2024-04-23T16:13:56.001Z,8.96
2024-04-23T16:16:22.912Z,9.31
2024-04-23T16:18:49.915Z,9.91
2024-04-23T16:21:16.933Z,9.82
2024-04-23T16:23:43.931Z,10.16
2024-04-23T16:26:11.466Z,10.10
2024-04-23T16:28:38.695Z,9.92
2024-04-23T16:31:08.572Z,10.45
2024-04-23T16:33:35.862Z,10.45
2024-04-23T16:36:03.361Z,10.59
2024-04-23T16:38:30.240Z,10.47
2024-04-23T16:40:57.309Z,10.61
2024-04-23T16:43:24.276Z,10.34
2024-04-23T16:45:51.256Z,10.34
2024-04-23T16:48:20.958Z,10.11
2024-04-23T16:50:51.286Z,9.44
2024-04-23T16:53:18.224Z,9.42
2024-04-23T16:55:45.239Z,9.79
2024-04-23T16:58:12.190Z,9.90
2024-04-23T17:00:39.169Z,9.82
2024-04-23T17:03:06.267Z,9.64
2024-04-23T17:05:36.018Z,9.33
2024-04-23T17:08:03.343Z,9.41
2024-04-23T17:10:31.173Z,9.09
2024-04-23T17:13:00.728Z,8.84
2024-04-23T17:15:27.915Z,8.81
2024-04-23T17:17:54.925Z,8.77
2024-04-23T17:20:21.955Z,8.87
2024-04-23T17:22:51.610Z,8.65
2024-04-23T17:25:18.917Z,8.73
2024-04-23T17:27:45.832Z,8.73
2024-04-23T17:30:12.792Z,8.70
2024-04-23T17:32:39.946Z,8.87
2024-04-23T17:35:07.110Z,8.65
2024-04-23T17:37:33.952Z,8.74
2024-04-23T17:40:03.715Z,8.75
2024-04-23T17:42:30.776Z,8.78
2024-04-23T17:44:57.670Z,8.67
2024-04-23T17:47:24.716Z,8.66
2024-04-23T17:49:51.718Z,8.51
2024-04-23T17:52:18.911Z,8.61
2024-04-23T17:54:45.800Z,8.71
2024-04-23T17:57:15.504Z,8.66
2024-04-23T17:59:42.406Z,8.79
2024-04-23T18:02:09.383Z,8.80
2024-04-23T18:04:36.390Z,7.95
2024-04-23T18:07:03.810Z,8.29
2024-04-23T18:09:30.832Z,8.28
2024-04-23T18:11:57.887Z,8.45
2024-04-23T18:14:27.451Z,8.42
2024-04-23T18:16:54.381Z,7.98
2024-04-23T18:19:21.348Z,7.86
2024-04-23T18:21:48.223Z,7.82
2024-04-23T18:24:15.500Z,7.71
2024-04-23T18:26:42.377Z,7.56
2024-04-23T18:29:09.451Z,7.88
2024-04-23T18:31:39.051Z,7.69
2024-04-23T18:34:06.049Z,7.78
2024-04-23T18:36:33.328Z,7.97
2024-04-23T18:39:00.437Z,7.89
2024-04-23T18:41:27.472Z,7.58
2024-04-23T18:43:54.385Z,7.31
2024-04-23T18:46:21.257Z,7.22
2024-04-23T18:48:50.982Z,7.65
2024-04-23T18:51:17.910Z,7.68
2024-04-23T18:53:44.873Z,7.55
2024-04-23T18:56:12.580Z,7.53
2024-04-23T18:58:39.552Z,7.69
2024-04-23T19:01:07.540Z,7.62
2024-04-23T19:03:34.507Z,7.82
2024-04-23T19:06:08.614Z,7.90
2024-04-23T19:08:35.483Z,7.72
2024-04-23T19:11:02.544Z,8.02
2024-04-23T19:13:29.536Z,8.03
2024-04-23T19:15:56.443Z,8.04
2024-04-23T19:18:23.468Z,8.10
2024-04-23T19:20:50.429Z,8.12
2024-04-23T19:23:20.145Z,7.75
2024-04-23T19:25:47.130Z,7.69
2024-04-23T19:28:14.012Z,7.59
2024-04-23T19:30:40.971Z,7.09
2024-04-23T19:33:08.348Z,6.76
2024-04-23T19:35:35.660Z,6.58
2024-04-23T19:38:02.993Z,6.24
2024-04-23T19:40:34.788Z,5.80
2024-04-23T19:43:02.242Z,5.92
2024-04-23T19:45:33.180Z,5.75
2024-04-23T19:48:00.468Z,5.27
2024-04-23T19:50:27.587Z,5.22
2024-04-23T19:52:54.549Z,5.36
2024-04-23T19:55:21.420Z,5.21
2024-04-23T19:57:51.557Z,5.13
2024-04-23T20:00:18.776Z,5.15
2024-04-23T20:02:45.784Z,5.04
2024-04-23T20:05:13.426Z,5.22
2024-04-23T20:07:40.344Z,5.24
2024-04-23T20:10:07.830Z,5.23
2024-04-23T20:12:34.921Z,5.30
2024-04-23T20:15:05.776Z,5.46
2024-04-23T20:17:33.000Z,5.24
2024-04-23T20:20:00.365Z,5.32
2024-04-23T20:22:27.372Z,5.09
2024-04-23T20:24:54.313Z,5.08
2024-04-23T20:27:21.194Z,5.25
2024-04-23T20:29:48.086Z,5.27
2024-04-23T20:32:17.850Z,5.04
2024-04-23T20:34:44.778Z,5.11
2024-04-23T20:37:11.741Z,4.88
2024-04-23T20:39:38.808Z,5.14
2024-04-23T20:42:06.069Z,5.13
2024-04-23T20:44:33.067Z,5.25
2024-04-23T20:46:59.986Z,5.18
2024-04-23T20:49:29.580Z,5.10
2024-04-23T20:51:56.587Z,4.86
2024-04-23T20:54:23.514Z,4.82
2024-04-23T20:56:50.657Z,4.88
2024-04-23T20:59:17.646Z,5.22
2024-04-23T21:01:44.547Z,5.36
2024-04-23T21:04:11.527Z,5.62
2024-04-23T21:06:41.205Z,5.28
2024-04-23T21:09:08.110Z,5.12
2024-04-23T21:11:35.091Z,5.15
2024-04-23T21:14:02.175Z,5.08
2024-04-23T21:16:29.173Z,5.07
2024-04-23T21:18:56.286Z,5.01
2024-04-23T21:21:23.200Z,4.96
2024-04-23T21:23:52.701Z,5.08
2024-04-23T21:26:19.631Z,5.13
2024-04-23T21:28:46.614Z,5.37
2024-04-23T21:31:13.491Z,5.38
2024-04-23T21:33:40.508Z,5.57
2024-04-23T21:36:08.344Z,5.20
2024-04-23T21:38:35.651Z,5.15
2024-04-23T21:41:09.289Z,5.10
2024-04-23T21:43:39.640Z,5.18
2024-04-23T21:46:07.257Z,5.02
2024-04-23T21:48:34.534Z,5.03
2024-04-23T21:51:04.749Z,4.77
2024-04-23T21:53:31.689Z,4.65
2024-04-23T21:55:58.889Z,4.71
2024-04-23T21:58:28.408Z,4.78
2024-04-23T22:00:55.623Z,4.52
2024-04-23T22:03:22.898Z,4.71
2024-04-23T22:05:50.004Z,4.59
2024-04-23T22:08:16.920Z,4.48
2024-04-23T22:10:43.932Z,4.83
2024-04-23T22:13:11.067Z,4.76
2024-04-23T22:15:43.905Z,4.79
2024-04-23T22:18:11.538Z,4.72
2024-04-23T22:20:38.725Z,4.88
2024-04-23T22:23:05.825Z,4.77
2024-04-23T22:25:32.967Z,4.83
2024-04-23T22:28:00.047Z,5.00
2024-04-23T22:30:27.108Z,5.07
2024-04-23T22:32:56.949Z,5.33
2024-04-23T22:35:23.952Z,5.80
2024-04-23T22:37:51.173Z,5.97
2024-04-23T22:40:18.196Z,6.26
2024-04-23T22:42:45.124Z,6.43
2024-04-23T22:45:11.992Z,6.54
2024-04-23T22:47:39.009Z,6.63
2024-04-23T22:50:08.919Z,6.79
2024-04-23T22:52:35.763Z,6.83
2024-04-23T22:55:02.610Z,6.84
2024-04-23T22:57:29.520Z,6.81
2024-04-23T22:59:56.399Z,6.85
2024-04-23T23:02:23.271Z,6.93
2024-04-23T23:04:50.227Z,6.85
2024-04-23T23:07:19.707Z,6.81
2024-04-23T23:09:46.535Z,6.57
2024-04-23T23:12:13.372Z,6.27
2024-04-23T23:14:40.267Z,6.30
2024-04-23T23:17:07.161Z,6.23
2024-04-23T23:19:34.019Z,5.84
2024-04-23T23:22:00.859Z,5.75
2024-04-23T23:24:30.300Z,5.48
2024-04-23T23:26:57.199Z,5.27
2024-04-23T23:29:24.030Z,5.04
2024-04-23T23:31:50.996Z,5.14
2024-04-23T23:34:17.830Z,5.29
2024-04-23T23:36:44.688Z,5.12
2024-04-23T23:39:11.501Z,4.94
2024-04-23T23:41:40.972Z,5.11
2024-04-23T23:44:07.800Z,5.04
2024-04-23T23:46:34.847Z,5.18
2024-04-23T23:49:01.731Z,5.24
2024-04-23T23:51:28.527Z,5.18
2024-04-23T23:53:55.482Z,5.23
2024-04-23T23:56:22.313Z,5.16
2024-04-23T23:58:51.880Z,5.16
